createdAt,value
2023-03-02T00:02:01.951Z,6.43
2023-03-02T00:04:31.846Z,6.57
2023-03-02T00:07:00.373Z,5.63
2023-03-02T00:09:22.255Z,6.27
2023-03-02T00:11:45.558Z,6.53
2023-03-02T00:14:07.491Z,7.47
2023-03-02T00:16:29.315Z,6.23
2023-03-02T00:18:51.233Z,6.37
2023-03-02T00:21:12.857Z,7.30
2023-03-02T00:23:34.639Z,7.30
2023-03-02T00:25:56.263Z,7.50
2023-03-02T00:28:17.835Z,8.83
2023-03-02T00:30:40.031Z,7.33
2023-03-02T00:33:01.675Z,6.70
2023-03-02T00:35:23.310Z,6.53
2023-03-02T00:37:45.289Z,6.73
2023-03-02T00:40:09.679Z,6.77
2023-03-02T00:44:53.561Z,7.03
2023-03-02T00:47:15.189Z,7.10
2023-03-02T00:49:36.866Z,7.43
2023-03-02T00:51:58.526Z,7.60
2023-03-02T00:54:20.216Z,7.13
2023-03-02T00:56:42.702Z,7.30
2023-03-02T00:59:06.546Z,6.93
2023-03-02T01:01:28.620Z,6.88
2023-03-02T01:03:50.317Z,7.83
2023-03-02T01:06:20.352Z,7.57
2023-03-02T01:08:42.047Z,6.80
2023-03-02T01:11:03.867Z,7.60
2023-03-02T01:13:25.483Z,7.43
2023-03-02T01:15:47.158Z,8.07
2023-03-02T01:18:08.855Z,8.40
2023-03-02T01:20:30.498Z,8.13
2023-03-02T01:22:52.158Z,8.73
2023-03-02T01:25:14.061Z,9.00
2023-03-02T01:27:37.293Z,8.67
2023-03-02T01:29:58.964Z,8.57
2023-03-02T01:32:20.736Z,10.20
2023-03-02T01:34:42.929Z,10.17
2023-03-02T01:37:04.633Z,10.07
2023-03-02T01:39:26.336Z,10.30
2023-03-02T01:41:52.181Z,10.77
2023-03-02T01:44:57.081Z,10.63
2023-03-02T01:47:28.478Z,11.80
2023-03-02T01:50:21.856Z,11.93
2023-03-02T01:52:47.426Z,13.17
2023-03-02T01:57:46.485Z,12.40
2023-03-02T02:00:11.990Z,12.97
2023-03-02T02:02:34.745Z,14.00
2023-03-02T02:04:57.252Z,13.93
2023-03-02T02:07:19.120Z,15.07
2023-03-02T02:09:47.670Z,15.00
2023-03-02T02:12:19.970Z,17.10
2023-03-02T02:14:43.171Z,16.10
2023-03-02T02:17:05.629Z,18.07
2023-03-02T02:20:10.964Z,18.13
2023-03-02T02:23:09.829Z,17.75
2023-03-02T02:25:52.948Z,19.77
2023-03-02T02:28:24.469Z,19.57
2023-03-02T02:30:52.459Z,20.33
2023-03-02T02:33:23.334Z,19.93
2023-03-02T02:35:47.873Z,20.80
2023-03-02T02:38:13.829Z,19.80
2023-03-02T02:40:55.440Z,20.37
2023-03-02T02:43:23.664Z,21.53
2023-03-02T02:45:49.052Z,21.33
2023-03-02T02:48:18.168Z,22.13
2023-03-02T02:50:39.806Z,21.87
2023-03-02T02:53:12.420Z,22.87
2023-03-02T02:55:35.756Z,22.77
2023-03-02T02:58:02.929Z,22.67
2023-03-02T03:00:25.938Z,22.20
2023-03-02T03:02:58.078Z,24.07
2023-03-02T03:05:19.884Z,23.40
2023-03-02T03:07:41.572Z,21.77
2023-03-02T03:10:39.942Z,23.13
2023-03-02T03:13:02.590Z,21.90
2023-03-02T03:15:24.232Z,21.27
2023-03-02T03:17:56.083Z,22.73
2023-03-02T03:20:19.833Z,22.60
2023-03-02T03:22:41.768Z,21.60
2023-03-02T03:25:06.477Z,20.42
2023-03-02T03:27:28.755Z,22.90
2023-03-02T03:29:51.181Z,22.97
2023-03-02T03:32:15.304Z,23.48
2023-03-02T03:34:41.749Z,24.87
2023-03-02T03:37:14.385Z,20.87
2023-03-02T03:39:36.373Z,22.43
2023-03-02T03:41:59.122Z,22.03
2023-03-02T03:44:21.522Z,20.70
2023-03-02T03:46:43.143Z,23.37
2023-03-02T03:49:05.858Z,21.90
2023-03-02T03:51:28.381Z,21.43
2023-03-02T03:53:59.965Z,21.00
2023-03-02T03:56:34.413Z,21.87
2023-03-02T03:59:06.434Z,20.43
2023-03-02T04:01:40.121Z,21.07
2023-03-02T04:04:05.064Z,19.47
2023-03-02T04:06:26.680Z,21.33
2023-03-02T04:08:48.375Z,22.03
2023-03-02T04:11:09.989Z,21.97
2023-03-02T04:13:31.949Z,22.27
2023-03-02T04:15:53.643Z,21.13
2023-03-02T04:18:15.569Z,22.07
2023-03-02T04:20:37.223Z,23.70
2023-03-02T04:22:59.671Z,22.57
2023-03-02T04:25:25.021Z,23.73
2023-03-02T04:27:53.038Z,24.20
2023-03-02T04:30:19.751Z,22.83
2023-03-02T04:32:41.366Z,23.07
2023-03-02T04:35:03.458Z,22.57
2023-03-02T04:37:25.315Z,25.07
2023-03-02T04:39:51.167Z,25.63
2023-03-02T04:42:12.799Z,25.43
2023-03-02T04:44:34.495Z,24.73
2023-03-02T04:46:56.275Z,24.10
2023-03-02T04:49:19.854Z,22.73
2023-03-02T04:51:45.921Z,24.23
2023-03-02T04:54:23.438Z,24.03
2023-03-02T04:56:48.469Z,25.33
2023-03-02T04:59:10.403Z,22.70
2023-03-02T05:01:32.063Z,25.10
2023-03-02T05:03:54.478Z,24.03
2023-03-02T05:06:17.227Z,25.17
2023-03-02T05:08:39.239Z,25.80
2023-03-02T05:11:01.639Z,26.77
2023-03-02T05:13:23.455Z,25.60
2023-03-02T05:15:45.143Z,26.23
2023-03-02T05:18:10.695Z,25.97
2023-03-02T05:20:33.012Z,25.47
2023-03-02T05:23:01.399Z,26.87
2023-03-02T05:25:23.514Z,26.30
2023-03-02T05:27:46.199Z,27.80
2023-03-02T05:30:09.067Z,24.87
2023-03-02T05:32:30.762Z,25.23
2023-03-02T05:34:52.415Z,25.00
2023-03-02T05:37:14.017Z,25.80
2023-03-02T05:39:35.615Z,26.17
2023-03-02T05:41:57.280Z,26.70
2023-03-02T05:44:18.862Z,28.07
2023-03-02T05:46:41.170Z,26.90
2023-03-02T05:49:02.945Z,27.30
2023-03-02T05:51:24.573Z,26.30
2023-03-02T05:53:46.637Z,26.07
2023-03-02T05:56:08.844Z,24.50
2023-03-02T05:58:30.990Z,25.93
2023-03-02T06:00:52.680Z,24.83
2023-03-02T06:03:15.154Z,26.93
2023-03-02T06:05:37.008Z,26.23
2023-03-02T06:07:58.826Z,25.73
2023-03-02T06:10:20.748Z,24.37
2023-03-02T06:12:42.547Z,23.93
2023-03-02T06:15:06.703Z,26.47
2023-03-02T06:17:28.338Z,25.55
2023-03-02T06:19:50.047Z,25.03
2023-03-02T06:22:11.751Z,25.00
2023-03-02T06:24:33.397Z,23.13
2023-03-02T06:26:55.664Z,24.50
2023-03-02T06:29:17.337Z,24.67
2023-03-02T06:31:39.024Z,23.27
2023-03-02T06:34:00.740Z,24.20
2023-03-02T06:36:22.488Z,26.97
2023-03-02T06:38:44.533Z,26.03
2023-03-02T06:41:06.194Z,24.57
2023-03-02T06:43:27.912Z,24.87
2023-03-02T06:45:51.012Z,25.17
2023-03-02T06:48:12.668Z,25.13
2023-03-02T06:50:35.126Z,24.07
2023-03-02T06:52:57.026Z,26.10
2023-03-02T06:55:18.707Z,25.17
2023-03-02T06:57:40.263Z,26.60
2023-03-02T07:00:10.258Z,22.80
2023-03-02T07:02:32.067Z,24.40
2023-03-02T07:04:53.910Z,23.67
2023-03-02T07:07:15.470Z,22.77
2023-03-02T07:09:37.394Z,24.50
2023-03-02T07:11:59.007Z,22.47
2023-03-02T07:14:20.686Z,21.90
2023-03-02T07:16:42.488Z,22.27
2023-03-02T07:19:04.172Z,19.73
2023-03-02T07:21:26.346Z,21.27
2023-03-02T07:23:48.125Z,22.17
2023-03-02T07:26:10.217Z,21.93
2023-03-02T07:28:31.883Z,21.00
2023-03-02T07:30:54.505Z,22.33
2023-03-02T07:33:16.211Z,22.07
2023-03-02T07:35:38.016Z,22.47
2023-03-02T07:38:00.008Z,20.60
2023-03-02T07:40:21.607Z,21.00
2023-03-02T07:42:43.286Z,19.67
2023-03-02T07:45:06.458Z,22.83
2023-03-02T07:47:28.009Z,20.47
2023-03-02T07:49:49.997Z,19.53
2023-03-02T07:52:11.692Z,20.43
2023-03-02T07:54:33.430Z,20.33
2023-03-02T07:56:55.085Z,20.87
2023-03-02T07:59:16.688Z,19.10
2023-03-02T08:01:38.497Z,21.03
2023-03-02T08:04:01.079Z,20.43
2023-03-02T08:06:22.948Z,21.37
2023-03-02T08:08:44.769Z,20.90
2023-03-02T08:11:17.294Z,20.23
2023-03-02T08:13:39.620Z,18.33
2023-03-02T08:16:08.525Z,18.93
2023-03-02T08:18:30.987Z,18.93
2023-03-02T08:20:53.861Z,17.47
2023-03-02T08:23:15.576Z,19.23
2023-03-02T08:25:38.583Z,19.87
2023-03-02T08:28:00.138Z,19.10
2023-03-02T08:30:21.910Z,19.13
2023-03-02T08:32:43.547Z,16.30
2023-03-02T08:35:05.973Z,17.77
2023-03-02T08:37:27.699Z,19.63
2023-03-02T08:39:49.275Z,18.87
2023-03-02T08:42:10.878Z,18.47
2023-03-02T08:44:32.567Z,17.67
2023-03-02T08:46:55.129Z,17.87
2023-03-02T08:49:18.490Z,17.03
2023-03-02T08:51:40.103Z,17.50
2023-03-02T08:54:01.734Z,15.20
2023-03-02T08:56:34.234Z,15.50
2023-03-02T08:59:01.368Z,14.37
2023-03-02T09:01:33.518Z,16.57
2023-03-02T09:03:57.543Z,15.80
2023-03-02T09:06:19.496Z,13.80
2023-03-02T09:08:42.318Z,15.03
2023-03-02T09:11:04.361Z,13.83
2023-03-02T09:13:25.946Z,15.07
2023-03-02T09:15:48.387Z,14.77
2023-03-02T09:18:10.380Z,13.83
2023-03-02T09:20:33.925Z,13.17
2023-03-02T09:22:56.545Z,13.93
2023-03-02T09:25:20.524Z,13.13
2023-03-02T09:27:42.136Z,14.45
2023-03-02T09:30:04.290Z,13.07
2023-03-02T09:32:25.911Z,14.57
2023-03-02T09:34:47.686Z,13.70
2023-03-02T09:37:09.355Z,13.67
2023-03-02T09:39:30.986Z,14.23
2023-03-02T09:42:14.630Z,13.07
2023-03-02T09:45:03.253Z,14.07
2023-03-02T09:47:56.675Z,12.93
2023-03-02T09:50:39.344Z,14.20
2023-03-02T09:53:31.469Z,14.90
2023-03-02T09:56:00.409Z,12.53
2023-03-02T09:58:29.208Z,14.83
2023-03-02T10:00:51.454Z,15.10
2023-03-02T10:03:27.149Z,13.30
2023-03-02T10:05:52.109Z,14.43
2023-03-02T10:08:27.123Z,13.63
2023-03-02T10:11:05.490Z,15.90
2023-03-02T10:13:30.121Z,16.53
2023-03-02T10:16:33.960Z,17.50
2023-03-02T10:19:10.786Z,15.40
2023-03-02T10:21:44.044Z,14.60
2023-03-02T10:24:32.839Z,14.27
2023-03-02T10:26:59.880Z,13.03
2023-03-02T10:29:56.823Z,13.50
2023-03-02T10:32:24.390Z,13.97
2023-03-02T10:34:47.923Z,14.17
2023-03-02T10:37:19.061Z,14.85
2023-03-02T10:39:40.768Z,14.17
2023-03-02T10:42:13.345Z,12.37
2023-03-02T10:44:42.119Z,11.43
2023-03-02T10:47:05.967Z,13.47
2023-03-02T10:49:33.243Z,14.23
2023-03-02T10:52:01.583Z,13.90
2023-03-02T10:54:23.590Z,13.73
2023-03-02T10:56:52.148Z,12.77
2023-03-02T10:59:45.749Z,12.27
2023-03-02T11:02:24.147Z,12.30
2023-03-02T11:04:46.037Z,12.10
2023-03-02T11:07:21.237Z,12.53
2023-03-02T11:10:05.684Z,12.13
2023-03-02T11:12:29.727Z,12.10
2023-03-02T11:15:28.244Z,11.13
2023-03-02T11:18:05.907Z,11.13
2023-03-02T11:20:35.674Z,11.27
2023-03-02T11:23:26.484Z,11.73
2023-03-02T11:26:02.084Z,10.87
2023-03-02T11:28:45.893Z,11.33
2023-03-02T11:31:20.614Z,11.43
2023-03-02T11:34:20.377Z,9.40
2023-03-02T11:37:02.336Z,10.73
2023-03-02T11:39:46.434Z,10.70
2023-03-02T11:42:26.918Z,9.63
2023-03-02T11:44:49.637Z,10.30
2023-03-02T11:47:12.408Z,9.53
2023-03-02T11:49:48.049Z,10.67
2023-03-02T11:52:21.474Z,10.43
2023-03-02T11:54:55.452Z,9.13
2023-03-02T11:57:27.931Z,9.73
2023-03-02T11:59:52.374Z,8.97
2023-03-02T12:02:15.484Z,9.23
2023-03-02T12:04:39.375Z,8.70
2023-03-02T12:07:23.643Z,9.57
2023-03-02T12:10:08.463Z,9.43
2023-03-02T12:12:41.021Z,8.55
2023-03-02T12:15:29.105Z,8.90
2023-03-02T12:17:51.991Z,9.03
2023-03-02T12:20:29.723Z,9.80
2023-03-02T12:22:51.629Z,8.43
2023-03-02T12:25:19.256Z,8.70
2023-03-02T12:27:42.134Z,9.43
2023-03-02T12:30:26.143Z,8.13
2023-03-02T12:33:10.590Z,8.27
2023-03-02T12:35:35.059Z,7.93
2023-03-02T12:41:02.627Z,8.80
2023-03-02T12:43:37.054Z,8.50
2023-03-02T12:46:27.083Z,7.90
2023-03-02T12:49:08.719Z,10.17
2023-03-02T12:52:03.401Z,10.27
2023-03-02T12:54:29.268Z,8.63
2023-03-02T12:57:22.401Z,8.67
2023-03-02T12:59:53.424Z,7.67
2023-03-02T13:02:21.497Z,8.90
2023-03-02T13:04:43.250Z,7.80
2023-03-02T13:07:06.049Z,8.80
2023-03-02T13:09:27.726Z,8.67
2023-03-02T13:11:52.060Z,8.60
2023-03-02T13:14:26.209Z,8.73
2023-03-02T13:17:03.145Z,7.47
2023-03-02T13:19:27.305Z,7.73
2023-03-02T13:21:49.323Z,7.88
2023-03-02T13:24:44.917Z,7.90
2023-03-02T13:27:16.698Z,7.37
2023-03-02T13:29:38.309Z,7.23
2023-03-02T13:32:35.718Z,8.07
2023-03-02T13:35:02.825Z,7.10
2023-03-02T13:37:44.180Z,7.63
2023-03-02T13:40:39.067Z,7.53
2023-03-02T13:43:00.700Z,7.10
2023-03-02T13:45:30.130Z,7.07
2023-03-02T13:47:53.633Z,7.73
2023-03-02T13:50:38.865Z,7.90
2023-03-02T13:53:06.298Z,7.60
2023-03-02T13:55:28.739Z,7.33
2023-03-02T13:57:53.333Z,6.73
2023-03-02T14:00:23.214Z,7.53
2023-03-02T14:02:47.537Z,6.90
2023-03-02T14:05:17.433Z,6.60
2023-03-02T14:07:39.057Z,6.40
2023-03-02T14:10:00.703Z,6.87
2023-03-02T14:12:32.909Z,6.33
2023-03-02T14:14:58.269Z,6.67
2023-03-02T14:17:25.088Z,6.83
2023-03-02T14:19:52.512Z,6.63
2023-03-02T14:22:14.125Z,7.77
2023-03-02T14:24:36.579Z,6.80
2023-03-02T14:26:58.354Z,6.40
2023-03-02T14:29:26.168Z,6.80
2023-03-02T14:31:48.317Z,7.43
2023-03-02T14:34:14.337Z,7.03
2023-03-02T14:36:36.126Z,6.73
2023-03-02T14:39:03.965Z,6.93
2023-03-02T14:41:27.844Z,8.13
2023-03-02T14:43:50.338Z,8.38
2023-03-02T14:46:12.009Z,8.37
2023-03-02T14:48:33.656Z,7.83
2023-03-02T14:50:55.357Z,7.50
2023-03-02T14:53:30.379Z,7.27
2023-03-02T14:55:52.031Z,7.57
2023-03-02T14:58:25.299Z,7.87
2023-03-02T15:00:47.064Z,7.00
2023-03-02T15:03:14.710Z,7.53
2023-03-02T15:05:36.374Z,6.73
2023-03-02T15:07:58.744Z,7.37
2023-03-02T15:10:22.266Z,7.37
2023-03-02T15:12:43.980Z,7.43
2023-03-02T15:15:06.378Z,7.10
2023-03-02T15:17:27.978Z,6.93
2023-03-02T15:19:49.568Z,7.17
2023-03-02T15:22:13.306Z,7.60
2023-03-02T15:24:34.949Z,6.68
2023-03-02T15:26:56.633Z,7.37
2023-03-02T15:29:20.437Z,6.90
2023-03-02T15:31:42.132Z,6.40
2023-03-02T15:34:03.967Z,7.37
2023-03-02T15:36:26.459Z,7.00
2023-03-02T15:38:50.833Z,6.90
2023-03-02T15:41:15.404Z,6.53
2023-03-02T15:43:37.326Z,6.80
2023-03-02T15:45:59.965Z,6.10
2023-03-02T15:48:21.543Z,6.30
2023-03-02T15:51:06.695Z,5.57
2023-03-02T15:53:30.468Z,6.53
2023-03-02T15:55:52.275Z,6.07
2023-03-02T15:58:13.969Z,5.10
2023-03-02T16:00:37.759Z,5.23
2023-03-02T16:02:59.516Z,6.10
2023-03-02T16:05:21.146Z,5.40
2023-03-02T16:07:43.194Z,5.20
2023-03-02T16:10:05.584Z,6.80
2023-03-02T16:12:27.278Z,8.70
2023-03-02T16:14:49.350Z,8.93
2023-03-02T16:17:11.803Z,9.33
2023-03-02T16:19:33.452Z,10.50
2023-03-02T16:21:55.907Z,10.23
2023-03-02T16:24:17.550Z,10.23
2023-03-02T16:26:39.331Z,10.30
2023-03-02T16:29:02.349Z,10.03
2023-03-02T16:31:27.003Z,10.50
2023-03-02T16:33:50.592Z,10.63
2023-03-02T16:36:13.884Z,9.57
2023-03-02T16:38:36.889Z,10.27
2023-03-02T16:40:58.596Z,10.07
2023-03-02T16:43:21.080Z,10.23
2023-03-02T16:45:42.790Z,10.67
2023-03-02T16:48:05.686Z,10.63
2023-03-02T16:50:27.365Z,10.23
2023-03-02T16:52:49.024Z,11.00
2023-03-02T16:55:18.769Z,10.43
2023-03-02T16:57:41.251Z,10.10
2023-03-02T17:00:06.023Z,10.43
2023-03-02T17:02:29.223Z,10.43
2023-03-02T17:04:50.785Z,10.40
2023-03-02T17:07:12.374Z,10.20
2023-03-02T17:09:41.392Z,9.90
2023-03-02T17:12:03.977Z,9.53
2023-03-02T17:14:26.398Z,9.90
2023-03-02T17:16:48.224Z,10.40
2023-03-02T17:19:09.805Z,10.00
2023-03-02T17:21:31.407Z,10.97
2023-03-02T17:23:53.093Z,10.97
2023-03-02T17:26:16.897Z,10.43
2023-03-02T17:28:39.261Z,11.40
2023-03-02T17:31:02.351Z,10.57
2023-03-02T17:33:26.245Z,12.77
2023-03-02T17:35:47.952Z,11.43
2023-03-02T17:38:10.052Z,10.30
2023-03-02T17:40:32.494Z,11.47
2023-03-02T17:42:56.187Z,10.80
2023-03-02T17:45:24.207Z,10.13
2023-03-02T17:47:46.284Z,11.53
2023-03-02T17:50:08.829Z,10.50
2023-03-02T17:52:30.561Z,12.87
2023-03-02T17:54:54.088Z,12.03
2023-03-02T17:57:21.776Z,13.07
2023-03-02T17:59:45.889Z,12.13
2023-03-02T18:02:10.184Z,13.70
2023-03-02T18:04:31.797Z,13.00
2023-03-02T18:06:54.141Z,14.70
2023-03-02T18:09:16.198Z,12.97
2023-03-02T18:11:38.356Z,14.10
2023-03-02T18:14:00.347Z,14.20
2023-03-02T18:16:23.464Z,13.97
2023-03-02T18:18:45.203Z,14.10
2023-03-02T18:21:07.139Z,15.10
2023-03-02T18:23:29.985Z,16.80
2023-03-02T18:25:51.699Z,14.93
2023-03-02T18:28:14.750Z,16.83
2023-03-02T18:30:36.428Z,16.30
2023-03-02T18:32:58.222Z,15.90
2023-03-02T18:35:20.318Z,16.10
2023-03-02T18:37:42.101Z,16.23
2023-03-02T18:40:07.402Z,16.13
2023-03-02T18:42:30.394Z,17.70
2023-03-02T18:44:52.118Z,16.93
2023-03-02T18:47:18.000Z,18.10
2023-03-02T18:49:42.534Z,18.33
2023-03-02T18:52:06.907Z,17.60
2023-03-02T18:56:50.121Z,16.97
2023-03-02T18:59:13.194Z,18.30
2023-03-02T19:01:35.706Z,18.47
2023-03-02T19:03:57.638Z,18.60
2023-03-02T19:06:20.525Z,17.60
2023-03-02T19:08:42.407Z,19.20
2023-03-02T19:11:06.676Z,18.23
2023-03-02T19:13:28.658Z,20.37
2023-03-02T19:15:54.679Z,18.33
2023-03-02T19:18:23.010Z,18.27
2023-03-02T19:20:46.597Z,18.23
2023-03-02T19:23:08.235Z,17.92
2023-03-02T19:25:30.815Z,19.00
2023-03-02T19:27:52.455Z,20.40
2023-03-02T19:30:24.388Z,17.37
2023-03-02T19:32:46.842Z,17.23
2023-03-02T19:35:09.191Z,18.77
2023-03-02T19:37:30.851Z,19.00
2023-03-02T19:39:52.519Z,18.27
2023-03-02T19:42:14.143Z,19.13
2023-03-02T19:44:36.641Z,18.40
2023-03-02T19:46:59.178Z,19.40
2023-03-02T19:49:20.768Z,18.60
2023-03-02T19:51:42.466Z,18.33
2023-03-02T19:54:04.337Z,18.63
2023-03-02T19:56:30.338Z,18.60
2023-03-02T19:58:54.020Z,18.67
2023-03-02T20:01:21.634Z,17.25
2023-03-02T20:03:48.015Z,17.67
2023-03-02T20:06:10.361Z,16.40
2023-03-02T20:08:32.051Z,14.60
2023-03-02T20:10:53.755Z,16.07
2023-03-02T20:13:17.638Z,16.03
2023-03-02T20:15:44.540Z,15.38
2023-03-02T20:18:10.619Z,15.07
2023-03-02T20:20:32.537Z,16.03
2023-03-02T20:22:54.187Z,15.20
2023-03-02T20:25:16.255Z,15.97
2023-03-02T20:27:38.023Z,15.27
2023-03-02T20:29:59.745Z,15.40
2023-03-02T20:32:21.777Z,15.20
2023-03-02T20:34:44.577Z,16.27
2023-03-02T20:37:07.579Z,17.23
2023-03-02T20:39:33.908Z,14.73
2023-03-02T20:41:56.747Z,16.10
2023-03-02T20:44:20.719Z,16.63
2023-03-02T20:46:48.430Z,18.83
2023-03-02T20:49:15.281Z,16.53
2023-03-02T20:51:39.596Z,16.40
2023-03-02T20:54:02.668Z,17.45
2023-03-02T20:56:25.666Z,17.43
2023-03-02T20:58:48.147Z,17.53
2023-03-02T21:01:11.686Z,18.80
2023-03-02T21:03:33.943Z,20.23
2023-03-02T21:05:55.963Z,18.43
2023-03-02T21:08:17.544Z,17.83
2023-03-02T21:10:39.292Z,17.77
2023-03-02T21:13:02.272Z,19.80
2023-03-02T21:15:27.132Z,18.93
2023-03-02T21:17:51.786Z,18.40
2023-03-02T21:20:14.411Z,19.40
2023-03-02T21:22:36.595Z,19.20
2023-03-02T21:24:58.318Z,19.57
2023-03-02T21:27:21.010Z,19.30
2023-03-02T21:29:42.743Z,18.47
2023-03-02T21:32:07.610Z,19.97
2023-03-02T21:34:29.706Z,18.13
2023-03-02T21:36:54.617Z,19.83
2023-03-02T21:39:16.598Z,21.10
2023-03-02T21:41:38.544Z,18.43
2023-03-02T21:44:00.163Z,18.40
2023-03-02T21:46:23.201Z,19.10
2023-03-02T21:48:45.597Z,18.83
2023-03-02T21:51:07.362Z,19.20
2023-03-02T21:53:29.033Z,20.07
2023-03-02T21:55:53.580Z,20.07
2023-03-02T22:00:39.951Z,19.87
2023-03-02T22:03:02.904Z,19.05
2023-03-02T22:05:25.414Z,21.53
2023-03-02T22:07:47.896Z,20.30
2023-03-02T22:10:38.715Z,19.40
2023-03-02T22:13:25.858Z,20.03
2023-03-02T22:15:50.921Z,20.57
2023-03-02T22:18:25.057Z,20.60
2023-03-02T22:20:50.531Z,20.92
2023-03-02T22:23:16.759Z,23.77
2023-03-02T22:25:38.826Z,21.40
2023-03-02T22:28:00.432Z,22.53
2023-03-02T22:30:23.820Z,20.40
2023-03-02T22:32:45.510Z,21.00
2023-03-02T22:35:27.610Z,22.03
2023-03-02T22:37:52.002Z,21.20
2023-03-02T22:43:11.152Z,20.63
2023-03-02T22:45:35.607Z,19.87
2023-03-02T22:50:26.305Z,21.10
2023-03-02T22:52:47.995Z,22.93
2023-03-02T22:55:35.303Z,22.10
2023-03-02T22:57:57.187Z,22.30
2023-03-02T23:00:18.740Z,20.27
2023-03-02T23:02:45.154Z,21.80
2023-03-02T23:05:39.368Z,21.97
2023-03-02T23:08:21.485Z,23.00
2023-03-02T23:10:44.515Z,22.87
2023-03-02T23:13:08.241Z,23.77
2023-03-02T23:15:29.815Z,22.08
2023-03-02T23:17:51.452Z,21.10
2023-03-02T23:20:16.241Z,21.67
2023-03-02T23:22:39.071Z,22.70
2023-03-02T23:25:00.814Z,21.50
2023-03-02T23:27:24.266Z,22.33
2023-03-02T23:29:45.962Z,21.60
2023-03-02T23:32:08.526Z,21.13
2023-03-02T23:34:32.962Z,22.73
2023-03-02T23:36:54.527Z,21.70
2023-03-02T23:39:17.593Z,21.37
2023-03-02T23:41:39.327Z,20.40
2023-03-02T23:44:01.057Z,22.53
2023-03-02T23:46:22.911Z,21.20
2023-03-02T23:48:44.624Z,21.53
2023-03-02T23:51:06.924Z,22.10
2023-03-02T23:53:28.626Z,21.07
2023-03-02T23:55:53.802Z,20.97
2023-03-02T23:58:16.899Z,21.37
